Time;durP1;ratioP1;P1;durP2;ratioP2;P2;SDS_P1;SDS_P2;PMS_P1;PMS_P2;Temp;Humidity;BMP_temperature;BMP_pressure;BME280_temperature;BME280_humidity;BME280_pressure;Samples;Min_cycle;Max_cycle;Signal;HPM_P1;HPM_P2
2024/03/01 00:00:46;;;;;;;50.00;25.33;;;;;;;7.78;100.00;140958.41;5060412;28;20033;-77
2024/03/01 00:03:13;;;;;;;56.10;27.20;;;;;;;7.71;100.00;141110.78;5051725;28;20058;-75
2024/03/01 00:05:38;;;;;;;53.13;26.73;;;;;;;7.33;100.00;140936.19;5069678;28;20028;-74
2024/03/01 00:08:04;;;;;;;50.00;25.27;;;;;;;7.91;100.00;141090.47;5058214;28;20029;-74
2024/03/01 00:10:29;;;;;;;52.65;26.60;;;;;;;7.80;100.00;141060.44;5069075;28;20024;-74
2024/03/01 00:12:55;;;;;;;50.53;25.77;;;;;;;7.58;100.00;141007.09;5050658;28;20032;-74
2024/03/01 00:15:20;;;;;;;49.35;25.95;;;;;;;7.31;100.00;140961.00;5069543;28;20029;-75
2024/03/01 00:17:46;;;;;;;46.35;24.13;;;;;;;7.84;100.00;140938.19;5069080;28;20495;-74
2024/03/01 00:20:12;;;;;;;51.63;25.40;;;;;;;7.33;100.00;141022.00;5068175;28;20031;-74
2024/03/01 00:22:38;;;;;;;49.53;24.73;;;;;;;7.15;100.00;141061.16;5069203;28;20111;-74
2024/03/01 00:25:08;;;;;;;44.17;23.67;;;;;;;7.26;100.00;141079.56;5067382;28;20131;-74
2024/03/01 00:27:33;;;;;;;50.63;25.67;;;;;;;7.84;100.00;141208.16;5050320;28;20032;-74
2024/03/01 00:29:58;;;;;;;51.83;25.90;;;;;;;7.26;100.00;141093.53;5069617;28;20036;-74
2024/03/01 00:32:24;;;;;;;48.53;24.70;;;;;;;7.56;100.00;141201.97;5057015;28;20039;-74
2024/03/01 00:34:49;;;;;;;51.63;26.80;;;;;;;7.70;100.00;141277.38;5069648;28;20025;-78
2024/03/01 00:37:15;;;;;;;48.67;24.98;;;;;;;7.82;100.00;141256.03;5066851;28;20388;-74
2024/03/01 00:39:40;;;;;;;55.38;26.88;;;;;;;7.60;100.00;141289.44;5069242;28;20056;-75
2024/03/01 00:42:06;;;;;;;49.33;26.65;;;;;;;8.04;100.00;141203.28;5051219;28;20450;-74
2024/03/01 00:44:31;;;;;;;53.60;27.05;;;;;;;7.72;100.00;141315.41;5069098;28;20082;-75
2024/03/01 00:46:56;;;;;;;50.03;26.55;;;;;;;7.86;100.00;141350.03;5068845;28;20410;-73
2024/03/01 00:49:22;;;;;;;53.00;27.38;;;;;;;7.90;100.00;141358.13;5058873;28;20033;-74
2024/03/01 00:51:47;;;;;;;55.25;27.58;;;;;;;7.92;100.00;141392.47;5068667;28;20066;-75
2024/03/01 00:54:12;;;;;;;52.20;27.60;;;;;;;7.29;100.00;141330.88;5050552;28;20111;-74
2024/03/01 00:56:38;;;;;;;56.03;28.65;;;;;;;7.71;100.00;141427.00;5068858;28;20044;-74
2024/03/01 00:59:04;;;;;;;56.30;28.15;;;;;;;7.17;100.00;141439.28;5054517;28;20475;-75
2024/03/01 01:01:29;;;;;;;59.67;28.35;;;;;;;7.07;100.00;141510.13;5068966;28;20039;-74
2024/03/01 01:03:55;;;;;;;57.50;28.75;;;;;;;8.04;100.00;141681.06;5051200;28;20445;-75
2024/03/01 01:06:20;;;;;;;56.20;28.65;;;;;;;7.76;100.00;141707.75;5048829;28;20043;-74
2024/03/01 01:08:45;;;;;;;52.83;27.77;;;;;;;7.78;100.00;141475.53;5068642;28;20470;-74
2024/03/01 01:11:11;;;;;;;60.03;28.55;;;;;;;7.17;100.00;141610.66;5049964;28;20025;-74
2024/03/01 01:13:36;;;;;;;55.75;26.50;;;;;;;7.52;100.00;141580.09;5061110;28;20040;-75
2024/03/01 01:16:01;;;;;;;54.70;27.05;;;;;;;7.73;100.00;141742.72;5068967;28;20028;-75
2024/03/01 01:18:27;;;;;;;55.28;28.65;;;;;;;7.78;100.00;141715.06;5068792;28;20491;-74
2024/03/01 01:20:52;;;;;;;53.30;29.02;;;;;;;7.27;100.00;141604.94;5068096;28;20453;-74
2024/03/01 01:23:18;;;;;;;53.47;26.75;;;;;;;7.75;100.00;141669.50;5049778;28;20039;-75
2024/03/01 01:25:43;;;;;;;53.85;27.60;;;;;;;7.57;100.00;141668.75;5068875;28;20040;-74
2024/03/01 01:28:09;;;;;;;46.97;25.58;;;;;;;7.28;100.00;141515.25;5067274;28;20024;-74
2024/03/01 01:30:34;;;;;;;43.85;24.42;;;;;;;7.64;100.00;141667.53;5068695;28;20035;-75
2024/03/01 01:33:00;;;;;;;45.88;24.58;;;;;;;7.57;100.00;141722.50;5069491;28;20043;-74
2024/03/01 01:35:26;;;;;;;43.50;25.42;;;;;;;7.46;100.00;141628.56;5066834;28;20040;-74
2024/03/01 01:37:52;;;;;;;44.75;24.70;;;;;;;7.72;100.00;141691.72;5053186;28;20029;-74
2024/03/01 01:40:17;;;;;;;47.33;26.55;;;;;;;7.24;100.00;141658.03;5052134;28;20414;-77
2024/03/01 01:42:43;;;;;;;45.97;24.80;;;;;;;6.76;100.00;141526.94;5073229;28;20056;-73
2024/03/01 01:45:09;;;;;;;42.13;22.90;;;;;;;7.68;100.00;141600.28;5053176;28;20131;-74
2024/03/01 01:47:34;;;;;;;45.55;24.25;;;;;;;7.56;100.00;141868.59;5054285;28;20501;-75
2024/03/01 01:50:01;;;;;;;47.70;25.05;;;;;;;7.76;100.00;141866.47;5072238;28;20104;-75
2024/03/01 01:52:27;;;;;;;41.10;23.13;;;;;;;6.92;100.00;141727.34;5071673;28;20041;-74
2024/03/01 01:54:53;;;;;;;48.30;24.25;;;;;;;7.53;100.00;141774.41;5071552;28;20040;-74
2024/03/01 01:57:18;;;;;;;43.08;24.58;;;;;;;7.63;100.00;141951.84;5054062;28;20036;-74
2024/03/01 01:59:46;;;;;;;46.60;25.27;;;;;;;7.65;100.00;141977.09;5070722;28;20032;-74
2024/03/01 02:02:11;;;;;;;45.03;24.77;;;;;;;7.60;100.00;141984.47;5053677;28;20032;-74
2024/03/01 02:04:36;;;;;;;45.28;25.05;;;;;;;7.83;100.00;141890.84;5071912;28;20033;-75
2024/03/01 02:07:04;;;;;;;43.50;23.27;;;;;;;7.55;100.00;142028.81;5072168;28;20036;-74
2024/03/01 02:09:30;;;;;;;42.17;23.40;;;;;;;6.70;100.00;141848.69;5053999;28;20027;-76
2024/03/01 02:11:55;;;;;;;43.78;24.50;;;;;;;7.57;100.00;142092.47;5071795;28;20032;-74
2024/03/01 02:14:21;;;;;;;44.85;24.77;;;;;;;7.12;100.00;141992.63;5072046;28;20054;-75
2024/03/01 02:16:46;;;;;;;43.00;23.30;;;;;;;7.60;100.00;142218.63;5065955;28;20491;-73
2024/03/01 02:19:15;;;;;;;43.05;23.23;;;;;;;7.26;100.00;142087.47;5070631;28;20086;-74
2024/03/01 02:22:09;;;;;;;43.10;24.48;;;;;;;7.83;100.00;142231.44;5053845;28;20032;-74
2024/03/01 02:24:34;;;;;;;42.38;23.80;;;;;;;7.76;100.00;142278.75;5063123;28;20449;-76
2024/03/01 02:27:00;;;;;;;45.53;23.85;;;;;;;7.27;100.00;142102.69;5053552;28;20032;-74
2024/03/01 02:29:26;;;;;;;51.10;26.50;;;;;;;7.28;100.00;142119.06;5071555;28;20039;-74
2024/03/01 02:31:52;;;;;;;47.75;24.80;;;;;;;7.69;100.00;142080.19;5053514;28;20505;-75
2024/03/01 02:34:17;;;;;;;48.92;24.10;;;;;;;7.63;100.00;142129.84;5071497;28;20059;-75
2024/03/01 02:36:43;;;;;;;48.65;24.15;;;;;;;7.82;100.00;142449.34;5071789;28;20167;-75
2024/03/01 02:39:16;;;;;;;53.70;30.08;;;;;;;7.94;100.00;142366.72;5071547;28;20457;-75
2024/03/01 02:41:51;;;;;;;49.63;26.65;;;;;;;7.86;100.00;142510.16;5069242;28;20025;-76
2024/03/01 02:44:16;;;;;;;50.33;26.33;;;;;;;7.39;100.00;142277.25;5070504;28;20024;-74
2024/03/01 02:46:42;;;;;;;49.97;25.90;;;;;;;7.92;100.00;142215.94;5060062;28;20132;-75
2024/03/01 02:49:09;;;;;;;51.15;26.67;;;;;;;7.96;100.00;142427.88;5071089;28;20028;-74
2024/03/01 02:51:35;;;;;;;51.40;25.25;;;;;;;7.54;100.00;142446.25;5071700;28;20024;-75
2024/03/01 02:54:01;;;;;;;50.30;25.33;;;;;;;7.33;100.00;142372.94;5070942;28;20039;-75
2024/03/01 02:56:26;;;;;;;48.63;25.92;;;;;;;7.70;100.00;142580.56;5052425;28;20132;-74
2024/03/01 02:58:52;;;;;;;49.40;25.92;;;;;;;7.76;100.00;142647.53;5053253;28;20108;-74
2024/03/01 03:01:21;;;;;;;49.83;26.42;;;;;;;7.18;100.00;142434.19;5071508;28;20036;-78
2024/03/01 03:03:46;;;;;;;51.28;25.23;;;;;;;7.69;100.00;142666.56;5071028;28;20056;-75
2024/03/01 03:06:12;;;;;;;53.90;26.55;;;;;;;7.82;100.00;142487.75;5070974;28;20075;-74
2024/03/01 03:08:38;;;;;;;50.88;25.45;;;;;;;6.97;100.00;142367.19;5069724;28;20028;-74
2024/03/01 03:11:04;;;;;;;49.30;26.15;;;;;;;7.42;100.00;142468.69;5052751;28;20078;-78
2024/03/01 03:13:29;;;;;;;50.28;24.13;;;;;;;7.85;100.00;142597.38;5070622;28;20460;-76
2024/03/01 03:15:55;;;;;;;51.47;25.50;;;;;;;7.52;100.00;142528.50;5070331;28;20058;-74
2024/03/01 03:18:20;;;;;;;49.38;25.38;;;;;;;7.80;100.00;142609.63;5069239;28;20040;-74
2024/03/01 03:20:46;;;;;;;45.60;24.48;;;;;;;8.12;100.00;142663.50;5051692;28;20414;-74
2024/03/01 03:23:11;;;;;;;48.38;25.00;;;;;;;8.06;100.00;142509.34;5070591;28;20025;-75
2024/03/01 03:25:36;;;;;;;45.75;24.92;;;;;;;7.69;100.00;142488.50;5051661;28;20032;-75
2024/03/01 03:28:02;;;;;;;45.47;25.75;;;;;;;8.03;100.00;142429.25;5052188;28;20029;-74
2024/03/01 03:30:28;;;;;;;52.03;26.00;;;;;;;7.74;100.00;142678.56;5068579;28;20060;-74
2024/03/01 03:32:53;;;;;;;45.70;24.42;;;;;;;7.93;100.00;142729.28;5070277;28;20499;-75
2024/03/01 03:35:19;;;;;;;52.05;25.88;;;;;;;7.84;100.00;142762.66;5068988;28;20040;-75
2024/03/01 03:37:44;;;;;;;50.60;25.27;;;;;;;7.73;100.00;142784.94;5069451;28;20062;-74
2024/03/01 03:40:16;;;;;;;47.70;26.02;;;;;;;7.86;100.00;142805.88;5070324;28;20028;-75
2024/03/01 03:42:42;;;;;;;;;;;;;;;7.73;100.00;142893.84;5070646;28;20533;-74
2024/03/01 03:45:08;;;;;;;50.67;25.27;;;;;;;7.72;100.00;142760.84;5070207;28;19916;-75
2024/03/01 03:47:34;;;;;;;48.65;26.35;;;;;;;7.80;100.00;142945.16;5069857;28;20544;-75
2024/03/01 03:49:59;;;;;;;51.70;25.95;;;;;;;7.64;100.00;142920.88;5070496;28;20111;-74
2024/03/01 03:52:25;;;;;;;53.15;25.77;;;;;;;7.67;100.00;143061.25;5069464;28;20021;-74
2024/03/01 03:54:51;;;;;;;54.78;26.50;;;;;;;7.63;100.00;142954.31;5069676;28;20126;-74
2024/03/01 03:57:16;;;;;;;51.85;26.48;;;;;;;7.90;100.00;142983.41;5069256;28;20162;-75
2024/03/01 03:59:42;;;;;;;51.55;25.40;;;;;;;7.68;100.00;143121.22;5070020;28;20105;-74
2024/03/01 04:02:07;;;;;;;45.70;24.42;;;;;;;7.75;100.00;143111.22;5069209;28;20024;-74
2024/03/01 04:04:32;;;;;;;51.08;25.25;;;;;;;7.75;100.00;143129.16;5051952;28;20520;-73
2024/03/01 04:06:58;;;;;;;54.17;26.13;;;;;;;7.66;100.00;143167.63;5069784;28;20533;-75
2024/03/01 04:09:23;;;;;;;49.58;25.33;;;;;;;7.70;100.00;143156.78;5058332;28;20036;-74
2024/03/01 04:11:49;;;;;;;53.08;26.67;;;;;;;7.82;100.00;143206.13;5051130;28;20050;-74
2024/03/01 04:14:14;;;;;;;50.10;26.02;;;;;;;7.23;100.00;143085.91;5058135;28;20491;-74
2024/03/01 04:16:40;;;;;;;50.22;25.00;;;;;;;7.21;100.00;143063.19;5050450;28;20040;-73
2024/03/01 04:19:08;;;;;;;48.38;26.17;;;;;;;7.96;100.00;143225.88;5051264;28;20028;-73
2024/03/01 04:21:36;;;;;;;50.90;25.20;;;;;;;7.30;100.00;143143.72;5070320;28;20021;-72
2024/03/01 04:24:11;;;;;;;43.92;23.70;;;;;;;7.17;100.00;143084.28;5051359;28;20039;-71
2024/03/01 04:26:36;;;;;;;45.70;23.55;;;;;;;7.53;100.00;143263.09;5070586;28;20028;-72
2024/03/01 04:29:03;;;;;;;49.25;24.67;;;;;;;7.48;100.00;143313.75;5051618;28;20035;-71
2024/03/01 04:31:29;;;;;;;53.05;25.25;;;;;;;7.32;100.00;143299.53;5066609;28;20040;-71
2024/03/01 04:33:54;;;;;;;52.05;25.77;;;;;;;6.92;100.00;143288.72;5066081;28;20056;-71
2024/03/01 04:36:20;;;;;;;51.60;26.90;;;;;;;7.18;100.00;143316.97;5049994;28;20452;-71
2024/03/01 04:38:46;;;;;;;51.67;25.67;;;;;;;6.89;100.00;143180.38;5066713;28;20035;-71
2024/03/01 04:41:22;;;;;;;52.63;26.67;;;;;;;7.23;100.00;143348.13;5066924;28;20036;-74
2024/03/01 04:43:47;;;;;;;53.20;26.00;;;;;;;7.09;100.00;143219.69;5065159;28;20115;-72
2024/03/01 04:46:13;;;;;;;51.63;25.58;;;;;;;7.12;100.00;143155.31;5066381;28;20173;-70
2024/03/01 04:48:38;;;;;;;50.88;28.13;;;;;;;7.18;100.00;143128.81;5065243;28;20480;-70
2024/03/01 04:51:14;;;;;;;51.42;25.48;;;;;;;6.84;100.00;142986.75;5066254;28;20033;-70
2024/03/01 04:53:40;;;;;;;51.15;26.85;;;;;;;6.72;100.00;142883.72;5047865;28;20482;-76
2024/03/01 04:56:09;;;;;;;53.88;27.90;;;;;;;7.26;100.00;142963.81;5066388;28;20122;-70
2024/03/01 04:58:35;;;;;;;48.00;25.95;;;;;;;6.88;100.00;142839.16;5066432;28;20102;-71
2024/03/01 05:01:01;;;;;;;44.35;24.77;;;;;;;7.20;100.00;142935.38;5047490;28;20029;-72
2024/03/01 05:03:30;;;;;;;45.58;24.70;;;;;;;6.82;100.00;142763.34;5063298;28;20138;-73
2024/03/01 05:05:56;;;;;;;48.72;25.65;;;;;;;6.57;100.00;142739.09;5065865;28;20029;-70
2024/03/01 05:08:22;;;;;;;46.78;24.85;;;;;;;6.84;100.00;142696.56;5065496;28;20024;-72
2024/03/01 05:10:49;;;;;;;45.50;24.48;;;;;;;7.25;100.00;142810.41;5068146;28;20028;-71
2024/03/01 05:13:24;;;;;;;44.65;23.00;;;;;;;6.77;100.00;142739.75;5070072;28;20029;-73
2024/03/01 05:15:49;;;;;;;46.83;24.50;;;;;;;7.24;100.00;142783.78;5067530;28;20033;-71
2024/03/01 05:18:15;;;;;;;46.38;25.20;;;;;;;6.75;100.00;142694.06;5053509;28;20150;-70
2024/03/01 05:20:41;;;;;;;44.90;24.98;;;;;;;7.25;100.00;142806.69;5070021;28;20114;-71
2024/03/01 05:23:07;;;;;;;46.63;25.55;;;;;;;7.35;100.00;142837.00;5069230;28;20028;-70
2024/03/01 05:25:33;;;;;;;46.63;25.27;;;;;;;6.87;100.00;142707.53;5070429;28;20028;-71
2024/03/01 05:27:59;;;;;;;45.72;23.52;;;;;;;7.42;100.00;142855.19;5070296;28;20120;-70
2024/03/01 05:30:25;;;;;;;48.10;24.73;;;;;;;6.94;100.00;142749.94;5070491;28;20028;-69
2024/03/01 05:32:51;;;;;;;45.55;24.08;;;;;;;6.85;100.00;142764.09;5068764;28;20054;-71
2024/03/01 05:35:19;;;;;;;45.38;24.42;;;;;;;6.85;100.00;142808.97;5053121;28;20028;-74
2024/03/01 05:37:46;;;;;;;50.08;26.98;;;;;;;6.66;100.00;142782.38;5068543;28;20450;-72
2024/03/01 05:40:14;;;;;;;50.15;25.35;;;;;;;6.82;100.00;142848.97;5072279;28;20028;-70
2024/03/01 05:42:46;;;;;;;52.22;26.60;;;;;;;7.27;100.00;142994.34;5068316;28;20071;-70
2024/03/01 05:45:11;;;;;;;;;;;;;;;7.49;100.00;142976.97;5070779;28;20502;-71
2024/03/01 05:47:44;;;;;;;52.65;27.05;;;;;;;7.43;100.00;142947.16;5071379;28;19963;-70
2024/03/01 05:50:11;;;;;;;55.33;27.55;;;;;;;7.41;100.00;142869.34;5069070;28;20060;-70
2024/03/01 05:52:38;;;;;;;58.03;27.95;;;;;;;6.53;100.00;142592.69;5070173;28;20028;-70
2024/03/01 05:55:04;;;;;;;54.83;27.08;;;;;;;6.93;100.00;142637.53;5071211;28;20094;-70
2024/03/01 05:57:30;;;;;;;57.00;30.88;;;;;;;7.65;100.00;142728.66;5069798;28;20035;-70
2024/03/01 05:59:56;;;;;;;55.50;28.25;;;;;;;7.42;100.00;142673.44;5071458;28;20039;-73
2024/03/01 06:02:23;;;;;;;55.33;28.48;;;;;;;7.16;100.00;142541.97;5071051;28;20028;-70
2024/03/01 06:04:48;;;;;;;51.22;27.40;;;;;;;6.54;100.00;142408.47;5069765;28;20455;-70
2024/03/01 06:07:17;;;;;;;51.20;25.98;;;;;;;7.55;100.00;142609.91;5070775;28;20064;-70
2024/03/01 06:09:43;;;;;;;49.63;26.23;;;;;;;7.59;100.00;142632.31;5053126;28;20520;-70
2024/03/01 06:12:08;;;;;;;51.53;25.75;;;;;;;6.97;100.00;142424.63;5056026;28;20212;-70
2024/03/01 06:14:34;;;;;;;46.30;24.90;;;;;;;7.64;100.00;142449.75;5052550;28;20035;-70
2024/03/01 06:16:59;;;;;;;49.50;27.45;;;;;;;7.22;100.00;142480.81;5069535;28;20074;-71
2024/03/01 06:19:25;;;;;;;50.47;26.92;;;;;;;7.42;100.00;142522.44;5052745;28;20504;-70
2024/03/01 06:21:52;;;;;;;57.20;28.42;;;;;;;7.64;100.00;142590.56;5059822;28;20020;-70
2024/03/01 06:24:18;;;;;;;51.53;27.15;;;;;;;7.05;100.00;142392.81;5052883;28;20044;-71
2024/03/01 06:26:43;;;;;;;56.65;29.48;;;;;;;7.74;100.00;142524.91;5070013;28;20032;-70
2024/03/01 06:29:09;;;;;;;57.35;28.90;;;;;;;7.03;100.00;142354.78;5069898;28;20040;-70
2024/03/01 06:31:34;;;;;;;58.50;29.83;;;;;;;7.65;100.00;142512.22;5052179;28;20487;-76
2024/03/01 06:34:00;;;;;;;56.63;27.95;;;;;;;7.69;100.00;142429.63;5070519;28;20089;-74
2024/03/01 06:36:26;;;;;;;52.17;29.45;;;;;;;7.68;100.00;142418.34;5053052;28;20040;-69
2024/03/01 06:38:51;;;;;;;50.55;27.48;;;;;;;7.69;100.00;142402.81;5070931;28;20031;-69
2024/03/01 06:41:16;;;;;;;49.63;26.67;;;;;;;7.18;100.00;142273.00;5070598;28;20029;-78
2024/03/01 06:43:42;;;;;;;50.25;27.88;;;;;;;7.60;100.00;142410.63;5069741;28;20457;-73
2024/03/01 06:46:07;;;;;;;47.97;25.85;;;;;;;7.64;100.00;142499.59;5052804;28;20089;-71
2024/03/01 06:48:33;;;;;;;49.53;26.38;;;;;;;7.20;100.00;142357.09;5070069;28;20024;-71
2024/03/01 06:50:59;;;;;;;50.92;27.35;;;;;;;7.79;100.00;142398.59;5070702;28;20429;-70
2024/03/01 06:53:27;;;;;;;49.38;26.52;;;;;;;7.65;100.00;142458.44;5071064;28;20028;-72
2024/03/01 06:55:52;;;;;;;44.58;25.75;;;;;;;7.47;100.00;142406.41;5052053;28;20477;-69
2024/03/01 06:58:18;;;;;;;48.85;27.17;;;;;;;7.16;100.00;142342.41;5069095;28;20028;-69
2024/03/01 07:00:46;;;;;;;46.58;25.50;;;;;;;7.74;100.00;142494.19;5070205;28;20471;-69
2024/03/01 07:03:15;;;;;;;44.95;24.75;;;;;;;7.64;100.00;142521.44;5056678;28;20127;-70
2024/03/01 07:05:41;;;;;;;41.88;24.45;;;;;;;7.42;100.00;142427.75;5059949;28;20067;-69
2024/03/01 07:08:06;;;;;;;46.13;25.98;;;;;;;7.96;100.00;142531.56;5074427;28;20033;-70
2024/03/01 07:10:32;;;;;;;46.38;25.52;;;;;;;7.60;100.00;142488.78;5071610;28;20025;-71
2024/03/01 07:12:58;;;;;;;48.78;26.23;;;;;;;7.80;100.00;142568.63;5068718;28;20463;-69
2024/03/01 07:15:23;;;;;;;47.15;25.80;;;;;;;7.85;100.00;142501.25;5060574;28;20028;-69
2024/03/01 07:17:49;;;;;;;47.63;26.13;;;;;;;7.44;100.00;142464.47;5070019;28;20035;-69
2024/03/01 07:20:14;;;;;;;47.13;26.77;;;;;;;7.50;100.00;142487.88;5051603;28;20028;-72
2024/03/01 07:22:40;;;;;;;50.00;28.08;;;;;;;8.01;100.00;142644.78;5070176;28;20044;-69
2024/03/01 07:25:05;;;;;;;53.35;31.50;;;;;;;8.04;100.00;142609.66;5069944;28;20036;-69
2024/03/01 07:27:35;;;;;;;46.70;28.20;;;;;;;7.70;100.00;142430.81;5068923;28;20047;-68
2024/03/01 07:30:05;;;;;;;50.05;27.88;;;;;;;7.67;100.00;142662.97;5069902;28;20479;-69
2024/03/01 07:32:33;;;;;;;47.05;27.95;;;;;;;7.65;100.00;142544.28;5069747;28;20074;-69
2024/03/01 07:34:58;;;;;;;51.63;29.30;;;;;;;7.74;100.00;142574.75;5068676;28;20097;-70
2024/03/01 07:37:24;;;;;;;49.92;28.92;;;;;;;7.85;100.00;142770.19;5068603;28;20047;-70
2024/03/01 07:39:49;;;;;;;49.63;29.52;;;;;;;7.94;100.00;142782.94;5053565;28;20466;-69
2024/03/01 07:42:14;;;;;;;51.10;28.95;;;;;;;7.41;100.00;142690.16;5069399;28;20028;-70
2024/03/01 07:44:40;;;;;;;48.13;27.50;;;;;;;7.51;100.00;142746.25;5069414;28;20076;-70
2024/03/01 07:47:05;;;;;;;43.67;25.33;;;;;;;7.52;100.00;142778.03;5069432;28;20025;-70
2024/03/01 07:49:34;;;;;;;44.03;27.23;;;;;;;7.57;100.00;142776.00;5067286;28;20163;-69
2024/03/01 07:51:59;;;;;;;47.83;28.15;;;;;;;8.07;100.00;142885.88;5066248;28;20491;-70
2024/03/01 07:54:27;;;;;;;44.20;28.02;;;;;;;8.17;100.00;142958.63;5068875;28;20036;-70
2024/03/01 07:56:53;;;;;;;45.33;28.33;;;;;;;8.22;100.00;142959.19;5069683;28;20035;-74
2024/03/01 07:59:19;;;;;;;43.92;26.73;;;;;;;8.19;100.00;142971.13;5068690;28;20024;-70
2024/03/01 08:01:45;;;;;;;43.42;25.35;;;;;;;7.65;100.00;142877.16;5069046;28;20024;-70
2024/03/01 08:04:11;;;;;;;40.42;25.40;;;;;;;8.07;100.00;143016.56;5051485;28;20400;-70
2024/03/01 08:06:37;;;;;;;41.20;24.10;;;;;;;7.53;100.00;142909.78;5069333;28;20036;-70
2024/03/01 08:09:02;;;;;;;42.75;24.58;;;;;;;8.01;100.00;143025.22;5050549;28;20461;-69
2024/03/01 08:11:42;;;;;;;43.47;24.65;;;;;;;7.03;100.00;142768.97;5069314;28;20403;-70
2024/03/01 08:14:30;;;;;;;45.65;26.58;;;;;;;8.02;100.00;142909.78;5069433;28;20095;-69
2024/03/01 08:16:57;;;;;;;43.50;24.65;;;;;;;7.87;100.00;142763.53;5050989;28;20119;-69
2024/03/01 08:19:35;;;;;;;37.65;24.30;;;;;;;7.63;100.00;142499.75;5069360;28;20506;-69
2024/03/01 08:22:15;;;;;;;42.78;24.73;;;;;;;7.97;100.00;142482.69;5059087;28;20180;-69
2024/03/01 08:24:42;;;;;;;37.60;23.73;;;;;;;8.15;100.00;142438.69;5056049;28;20040;-69
2024/03/01 08:27:09;;;;;;;38.83;23.15;;;;;;;8.18;100.00;142416.50;5065953;28;20131;-69
2024/03/01 08:29:35;;;;;;;39.22;23.08;;;;;;;7.71;100.00;142339.66;5068807;28;20024;-69
2024/03/01 08:32:04;;;;;;;39.95;23.17;;;;;;;8.21;100.00;142301.88;5050483;28;20032;-69
2024/03/01 08:34:50;;;;;;;37.30;22.08;;;;;;;8.12;100.00;142439.19;5067289;28;20501;-70
2024/03/01 08:37:22;;;;;;;36.55;21.92;;;;;;;7.76;100.00;142329.97;5067976;28;20119;-70
2024/03/01 08:39:48;;;;;;;35.53;22.77;;;;;;;8.10;100.00;142385.69;5058868;28;20104;-72
2024/03/01 08:42:15;;;;;;;35.28;22.55;;;;;;;8.62;100.00;142501.38;5068813;28;20473;-72
2024/03/01 08:44:50;;;;;;;39.17;23.63;;;;;;;8.68;100.00;142764.53;5067152;28;20039;-70
2024/03/01 08:47:21;;;;;;;37.60;23.48;;;;;;;8.62;100.00;142939.94;5067129;28;20093;-69
2024/03/01 08:49:51;;;;;;;45.78;25.55;;;;;;;8.54;100.00;142968.09;5058232;28;20502;-69
2024/03/01 08:52:39;;;;;;;45.28;26.50;;;;;;;8.68;100.00;142950.44;5050946;28;20035;-70
2024/03/01 08:55:16;;;;;;;45.28;26.27;;;;;;;8.56;100.00;142803.66;5066035;28;20048;-69
2024/03/01 08:57:42;;;;;;;45.22;26.50;;;;;;;8.10;100.00;142890.50;5067123;28;20028;-70
2024/03/01 09:00:26;;;;;;;44.60;26.95;;;;;;;8.62;100.00;143051.44;5050395;28;20457;-70
2024/03/01 09:02:52;;;;;;;45.10;26.77;;;;;;;8.70;100.00;143139.94;5050069;28;20028;-75
2024/03/01 09:05:18;;;;;;;45.10;27.70;;;;;;;7.88;100.00;142928.53;5068177;28;20036;-69
2024/03/01 09:07:44;;;;;;;44.35;26.38;;;;;;;8.41;100.00;143042.00;5068606;28;20410;-70
2024/03/01 09:10:39;;;;;;;48.05;27.48;;;;;;;8.90;100.00;143280.59;5050090;28;20025;-73
2024/03/01 09:13:05;;;;;;;41.85;26.58;;;;;;;8.77;100.00;143221.09;5048770;28;20059;-70
2024/03/01 09:15:42;;;;;;;44.90;26.73;;;;;;;8.45;100.00;143202.91;5066816;28;20483;-69
2024/03/01 09:18:36;;;;;;;43.42;27.65;;;;;;;8.99;100.00;143304.88;5063212;28;20033;-70
2024/03/01 09:21:01;;;;;;;45.80;29.17;;;;;;;8.79;100.00;143441.44;5070980;28;20040;-70
2024/03/01 09:23:26;;;;;;;44.15;28.25;;;;;;;8.90;100.00;143452.53;5053816;28;20415;-70
2024/03/01 09:25:59;;;;;;;45.65;28.42;;;;;;;8.92;100.00;143434.28;5068724;28;20414;-70
2024/03/01 09:28:25;;;;;;;43.47;27.33;;;;;;;9.00;100.00;143543.41;5049418;28;20079;-70
2024/03/01 09:30:54;;;;;;;44.60;27.15;;;;;;;9.09;100.00;143630.47;5067435;28;20514;-70
2024/03/01 09:33:23;;;;;;;43.55;27.10;;;;;;;8.89;100.00;143529.72;5068293;28;20037;-70
2024/03/01 09:35:51;;;;;;;39.75;27.10;;;;;;;9.44;100.00;143778.00;5056658;28;20554;-70
2024/03/01 09:38:18;;;;;;;44.60;27.67;;;;;;;8.98;100.00;143732.31;5068300;28;20074;-70
2024/03/01 09:40:47;;;;;;;41.05;26.35;;;;;;;9.27;100.00;143876.81;5060501;28;20037;-70
2024/03/01 09:43:33;;;;;;;39.38;27.08;;;;;;;9.29;100.00;143948.44;5067922;28;20024;-70
2024/03/01 09:46:27;;;;;;;39.13;26.77;;;;;;;9.48;100.00;144070.28;5067568;28;20037;-73
2024/03/01 09:49:18;;;;;;;35.92;24.83;;;;;;;9.77;100.00;144072.41;5068450;28;20099;-70
2024/03/01 09:51:44;;;;;;;37.08;23.67;;;;;;;10.05;100.00;143966.50;5003114;28;20036;-70
2024/03/01 09:54:39;;;;;;;34.40;22.60;;;;;;;9.74;100.00;144230.91;5067578;28;20025;-71
2024/03/01 09:57:23;;;;;;;33.60;22.48;;;;;;;9.83;100.00;144286.09;5071688;28;20063;-74
2024/03/01 09:59:55;;;;;;;31.83;22.00;;;;;;;9.79;100.00;144273.84;5069555;28;20510;-70
2024/03/01 10:02:20;;;;;;;;;;;;;;;9.54;100.00;144358.41;5052627;28;20630;-71
2024/03/01 10:05:05;;;;;;;32.20;22.08;;;;;;;9.10;100.00;144323.63;5071624;28;19979;-70
2024/03/01 10:07:47;;;;;;;29.90;21.85;;;;;;;9.80;100.00;144487.09;5070563;28;20098;-70
2024/03/01 10:10:32;;;;;;;31.52;22.67;;;;;;;9.96;100.00;144555.56;5071285;28;20032;-71
2024/03/01 10:13:06;;;;;;;29.67;21.33;;;;;;;9.63;100.00;144465.03;5068600;28;20041;-71
2024/03/01 10:16:06;;;;;;;35.47;22.83;;;;;;;10.32;100.00;144738.19;5071675;28;20040;-70
2024/03/01 10:19:10;;;;;;;34.17;23.05;;;;;;;10.32;100.00;144837.19;5060164;28;20078;-69
2024/03/01 10:21:52;;;;;;;30.90;22.20;;;;;;;9.94;100.00;144797.59;5064771;28;20044;-72
2024/03/01 10:24:50;;;;;;;34.45;24.30;;;;;;;10.36;100.00;144900.97;5051586;28;20084;-69
2024/03/01 10:27:39;;;;;;;33.63;22.65;;;;;;;10.46;100.00;144969.06;5071305;28;20123;-69
2024/03/01 10:30:15;;;;;;;28.67;19.98;;;;;;;9.98;100.00;144980.81;4716625;28;10000435;-73
2024/03/01 10:32:47;;;;;;;28.98;21.77;;;;;;;10.34;100.00;144986.19;5066690;28;20093;-72
2024/03/01 10:35:22;;;;;;;29.77;21.38;;;;;;;10.21;100.00;145040.81;5068370;28;20481;-71
2024/03/01 10:38:22;;;;;;;29.50;21.00;;;;;;;10.62;100.00;145175.53;5068269;28;20039;-71
2024/03/01 10:40:54;;;;;;;31.15;21.90;;;;;;;10.45;100.00;145261.44;5068580;28;20115;-71
2024/03/01 10:43:57;;;;;;;28.55;20.45;;;;;;;10.05;100.00;145154.81;5069298;28;20047;-72
2024/03/01 10:46:24;;;;;;;30.67;20.73;;;;;;;10.41;100.00;145299.25;5025644;28;20040;-74
2024/03/01 10:49:05;;;;;;;29.20;21.38;;;;;;;10.45;100.00;145341.25;5058061;28;20043;-71
2024/03/01 10:51:35;;;;;;;33.00;24.07;;;;;;;10.38;100.00;145370.47;5068674;28;20105;-72
2024/03/01 10:54:04;;;;;;;32.72;23.52;;;;;;;9.76;100.00;145171.56;5070121;28;20025;-70
2024/03/01 10:56:30;;;;;;;29.15;22.63;;;;;;;10.83;100.00;145287.16;5070361;28;20094;-71
2024/03/01 10:59:14;;;;;;;31.75;22.50;;;;;;;10.81;100.00;145548.94;5068509;28;20036;-70
2024/03/01 11:02:09;;;;;;;27.63;19.45;;;;;;;10.81;100.00;145565.63;5069492;28;20028;-70
2024/03/01 11:04:39;;;;;;;27.10;18.80;;;;;;;10.38;100.00;145518.44;5069536;28;20036;-70
2024/03/01 11:07:30;;;;;;;25.67;18.73;;;;;;;9.73;100.00;145396.97;5070550;28;20055;-72
2024/03/01 11:10:12;;;;;;;29.50;20.48;;;;;;;10.65;100.00;145553.66;5071620;28;20594;-72
2024/03/01 11:12:59;;;;;;;29.05;20.17;;;;;;;10.73;100.00;145622.13;5070361;28;21719;-73
2024/03/01 11:15:27;;;;;;;27.77;19.88;;;;;;;11.30;100.00;145706.00;5068782;28;20028;-73
2024/03/01 11:17:54;;;;;;;31.50;20.63;;;;;;;11.34;100.00;145797.03;5071084;28;20056;-73